LEAB/ABC METAR and TAF weather

Enter ICAO airport designator
Station Type Date Time Source
LEAB METAR 2018/12/13 09:00 UTC NOAA

LEAB 130900Z 21004KT 180V260 9999 SCT049 09/07 Q1009 TEMPO RA BKN025


Station Type Date Time Source
LEAB Decoded METAR 2018/12/13 09:00 UTC NOAA

Albacete / Los Llanos, Spain (LEAB) 38-57N 001-51W 704M
Dec 13, 2018 - 04:00 AM EST / 2018.12.13 0900 UTC
Wind: from the SSW (210 degrees) at 5 MPH (4 KT) (direction variable):0
Visibility: greater than 7 mile(s):0
Sky conditions: partly cloudy
Temperature: 48 F (9 C)
Dew Point: 44 F (7 C)
Relative Humidity: 87%
Pressure (altimeter): 29.80 in. Hg (1009 hPa)
ob: LEAB 130900Z 21004KT 180V260 9999 SCT049 09/07 Q1009 TEMPO RA BKN025
cycle: 9

Station Type Date Time Source
LEAB TAF 2018/04/26 18:51 UTC NOAA

TAF
AMD LEAB 261747Z 2618/2706 16012KT 9999 FEW040
BECMG 2704/2706 27015KT
TEMPO 2704/2706 BKN014


Example: see airport list